Time,TemperatureF,DewpointF,PressureIn,WindDirection,WindDirectionDegrees,WindSpeedMPH,WindSpeedGustMPH,Humidity,HourlyPrecipIn,Conditions,Clouds,dailyrainin,SoftwareType,DateUTC
2013-07-22 00:03:00,71.0,70.0,29.87,ESE,118,0.0,0.0,95,0.00,,,0.00,weatherlink.com 1.10,2013-07-22 04:03:00,
2013-07-22 00:18:00,70.9,70.0,29.87,ESE,121,0.0,0.0,95,0.01,,,0.01,weatherlink.com 1.10,2013-07-22 04:18:00,
2013-07-22 00:33:00,70.8,69.0,29.86,ESE,122,0.0,0.0,95,0.01,,,0.01,weatherlink.com 1.10,2013-07-22 04:33:00,
2013-07-22 00:48:00,70.6,69.0,29.86,ESE,122,0.0,0.0,95,0.01,,,0.01,weatherlink.com 1.10,2013-07-22 04:48:00,
2013-07-22 01:03:00,70.6,70.0,29.85,ESE,122,0.0,0.0,96,0.01,,,0.01,weatherlink.com 1.10,2013-07-22 05:03:00,
2013-07-22 01:18:00,70.4,69.0,29.85,ESE,122,0.0,0.0,96,0.00,,,0.01,weatherlink.com 1.10,2013-07-22 05:18:00,
2013-07-22 01:33:00,70.4,69.0,29.85,ESE,122,0.0,0.0,96,0.00,,,0.01,weatherlink.com 1.10,2013-07-22 05:33:00,
2013-07-22 01:48:00,70.6,70.0,29.84,ESE,122,0.0,0.0,97,0.00,,,0.01,weatherlink.com 1.10,2013-07-22 05:48:00,
2013-07-22 02:03:00,70.3,69.0,29.84,ESE,122,0.0,0.0,96,0.00,,,0.01,weatherlink.com 1.10,2013-07-22 06:03:00,
2013-07-22 02:18:00,70.1,69.0,29.84,ESE,122,0.0,0.0,96,0.00,,,0.01,weatherlink.com 1.10,2013-07-22 06:18:00,
2013-07-22 02:33:00,69.7,69.0,29.84,ESE,122,0.0,0.0,96,0.00,,,0.01,weatherlink.com 1.10,2013-07-22 06:33:00,
2013-07-22 02:48:00,69.4,68.0,29.84,ESE,122,0.0,0.0,96,0.00,,,0.01,weatherlink.com 1.10,2013-07-22 06:48:00,
2013-07-22 03:03:00,69.2,68.0,29.84,ESE,122,0.0,0.0,96,0.00,,,0.01,weatherlink.com 1.10,2013-07-22 07:03:00,
2013-07-22 03:18:00,69.1,68.0,29.83,ESE,122,0.0,0.0,96,0.00,,,0.01,weatherlink.com 1.10,2013-07-22 07:18:00,
2013-07-22 03:34:00,69.0,68.0,29.83,ESE,122,0.0,0.0,97,0.00,,,0.01,weatherlink.com 1.10,2013-07-22 07:34:00,
2013-07-22 03:49:00,69.0,68.0,29.84,ESE,122,0.0,0.0,97,0.00,,,0.01,weatherlink.com 1.10,2013-07-22 07:49:00,
2013-07-22 04:04:00,69.1,68.0,29.83,ESE,122,0.0,0.0,97,0.00,,,0.01,weatherlink.com 1.10,2013-07-22 08:04:00,
2013-07-22 04:19:00,69.4,69.0,29.83,ESE,122,0.0,0.0,97,0.00,,,0.01,weatherlink.com 1.10,2013-07-22 08:19:00,
2013-07-22 04:34:00,69.6,69.0,29.82,ESE,122,0.0,0.0,97,0.00,,,0.01,weatherlink.com 1.10,2013-07-22 08:34:00,
2013-07-22 04:49:00,69.6,69.0,29.82,ESE,122,0.0,0.0,97,0.00,,,0.01,weatherlink.com 1.10,2013-07-22 08:49:00,
2013-07-22 05:04:00,69.6,69.0,29.82,ESE,122,0.0,0.0,97,0.00,,,0.01,weatherlink.com 1.10,2013-07-22 09:04:00,
2013-07-22 05:19:00,69.5,69.0,29.82,ESE,122,0.0,0.0,97,0.00,,,0.01,weatherlink.com 1.10,2013-07-22 09:19:00,
2013-07-22 05:34:00,69.4,69.0,29.83,ESE,122,0.0,0.0,97,0.00,,,0.01,weatherlink.com 1.10,2013-07-22 09:34:00,
2013-07-22 05:49:00,69.3,69.0,29.84,ESE,122,0.0,0.0,97,0.00,,,0.01,weatherlink.com 1.10,2013-07-22 09:49:00,
2013-07-22 06:04:00,69.2,68.0,29.84,WNW,298,0.0,0.0,97,0.00,,,0.01,weatherlink.com 1.10,2013-07-22 10:04:00,
2013-07-22 06:19:00,69.3,69.0,29.83,WNW,298,0.0,0.0,98,0.00,,,0.01,weatherlink.com 1.10,2013-07-22 10:19:00,
2013-07-22 06:34:00,69.5,69.0,29.83,WNW,298,0.0,0.0,98,0.00,,,0.01,weatherlink.com 1.10,2013-07-22 10:34:00,
2013-07-22 06:49:00,69.7,69.0,29.84,WNW,298,0.0,0.0,98,0.00,,,0.01,weatherlink.com 1.10,2013-07-22 10:49:00,
2013-07-22 07:04:00,69.8,69.0,29.84,WNW,298,0.0,0.0,98,0.00,,,0.01,weatherlink.com 1.10,2013-07-22 11:04:00,
2013-07-22 07:19:00,70.0,69.0,29.84,WNW,298,0.0,0.0,98,0.00,,,0.01,weatherlink.com 1.10,2013-07-22 11:19:00,
2013-07-22 07:34:00,70.3,70.0,29.84,WNW,298,0.0,0.0,98,0.00,,,0.01,weatherlink.com 1.10,2013-07-22 11:34:00,
2013-07-22 07:49:00,70.7,70.0,29.84,WNW,298,0.0,0.0,97,0.00,,,0.01,weatherlink.com 1.10,2013-07-22 11:49:00,
2013-07-22 08:04:00,71.0,70.0,29.84,WNW,298,0.0,0.0,97,0.00,,,0.01,weatherlink.com 1.10,2013-07-22 12:04:00,
2013-07-22 08:19:00,71.6,71.0,29.85,WNW,298,0.0,0.0,97,0.00,,,0.01,weatherlink.com 1.10,2013-07-22 12:19:00,
2013-07-22 08:34:00,71.8,71.0,29.85,WNW,298,0.0,0.0,96,0.00,,,0.01,weatherlink.com 1.10,2013-07-22 12:34:00,
2013-07-22 08:49:00,71.9,71.0,29.85,NNE,13,0.0,0.0,96,0.00,,,0.01,weatherlink.com 1.10,2013-07-22 12:49:00,
2013-07-22 09:04:00,72.4,71.0,29.85,ESE,120,0.0,0.0,96,0.00,,,0.01,weatherlink.com 1.10,2013-07-22 13:04:00,
2013-07-22 09:19:00,72.7,71.0,29.85,ESE,120,0.0,0.0,95,0.00,,,0.01,weatherlink.com 1.10,2013-07-22 13:19:00,
2013-07-22 09:34:00,73.2,71.0,29.85,East,101,0.0,0.0,94,0.00,,,0.01,weatherlink.com 1.10,2013-07-22 13:34:00,
2013-07-22 09:49:00,74.1,72.0,29.85,ESE,107,0.0,0.0,93,0.00,,,0.01,weatherlink.com 1.10,2013-07-22 13:49:00,
2013-07-22 10:04:00,75.2,73.0,29.85,NW,326,0.0,0.0,92,0.00,,,0.01,weatherlink.com 1.10,2013-07-22 14:04:00,
2013-07-22 10:19:00,76.1,73.0,29.85,South,176,0.0,0.0,89,0.00,,,0.01,weatherlink.com 1.10,2013-07-22 14:19:00,
2013-07-22 10:34:00,77.8,74.0,29.84,WNW,291,0.0,0.0,89,0.00,,,0.01,weatherlink.com 1.10,2013-07-22 14:34:00,
2013-07-22 10:49:00,80.5,75.0,29.84,NNW,342,1.0,3.0,82,0.00,,,0.01,weatherlink.com 1.10,2013-07-22 14:49:00,
2013-07-22 11:04:00,80.5,73.0,29.84,SE,138,0.0,4.0,78,0.00,,,0.01,weatherlink.com 1.10,2013-07-22 15:04:00,
2013-07-22 11:19:00,79.9,72.0,29.84,ESE,116,0.0,2.0,77,0.00,,,0.01,weatherlink.com 1.10,2013-07-22 15:19:00,
2013-07-22 11:34:00,80.2,72.0,29.84,East,101,0.0,2.0,76,0.00,,,0.01,weatherlink.com 1.10,2013-07-22 15:34:00,
2013-07-22 11:49:00,81.1,73.0,29.84,ESE,103,1.0,3.0,76,0.00,,,0.01,weatherlink.com 1.10,2013-07-22 15:49:00,
2013-07-22 12:04:00,82.5,74.0,29.83,NW,325,0.0,2.0,76,0.00,,,0.01,weatherlink.com 1.10,2013-07-22 16:04:00,
2013-07-22 12:19:00,82.6,73.0,29.83,WNW,286,0.0,3.0,72,0.00,,,0.01,weatherlink.com 1.10,2013-07-22 16:19:00,
2013-07-22 12:34:00,83.4,73.0,29.82,SSW,200,0.0,3.0,70,0.00,,,0.01,weatherlink.com 1.10,2013-07-22 16:34:00,
2013-07-22 12:50:00,83.1,73.0,29.81,ESE,105,1.0,4.0,71,0.00,,,0.01,weatherlink.com 1.10,2013-07-22 16:50:00,
2013-07-22 13:05:00,84.4,73.0,29.81,East,101,0.0,3.0,69,0.00,,,0.01,weatherlink.com 1.10,2013-07-22 17:05:00,
2013-07-22 13:20:00,84.5,73.0,29.80,East,98,0.0,3.0,68,0.00,,,0.01,weatherlink.com 1.10,2013-07-22 17:20:00,
2013-07-22 13:35:00,84.8,73.0,29.80,ESE,103,0.0,5.0,68,0.00,,,0.01,weatherlink.com 1.10,2013-07-22 17:35:00,
2013-07-22 13:50:00,86.3,74.0,29.79,SE,140,2.0,3.0,67,0.00,,,0.01,weatherlink.com 1.10,2013-07-22 17:50:00,
2013-07-22 14:05:00,85.9,72.0,29.78,ENE,70,1.0,7.0,64,0.00,,,0.01,weatherlink.com 1.10,2013-07-22 18:05:00,
2013-07-22 14:20:00,86.6,74.0,29.78,East,93,2.0,4.0,66,0.00,,,0.01,weatherlink.com 1.10,2013-07-22 18:20:00,
2013-07-22 15:05:00,88.2,72.0,29.75,SE,142,0.0,4.0,59,0.00,,,0.01,weatherlink.com 1.10,2013-07-22 19:05:00,
2013-07-22 15:20:00,87.8,72.0,29.74,ESE,105,1.0,3.0,60,0.00,,,0.01,weatherlink.com 1.10,2013-07-22 19:20:00,
2013-07-22 15:35:00,87.0,72.0,29.73,ENE,69,0.0,4.0,62,0.00,,,0.01,weatherlink.com 1.10,2013-07-22 19:35:00,
2013-07-22 15:50:00,88.1,73.0,29.73,NNE,30,6.0,7.0,61,0.00,,,0.01,weatherlink.com 1.10,2013-07-22 19:50:00,
2013-07-22 16:05:00,85.8,73.0,29.73,ESE,108,1.0,5.0,65,0.00,,,0.01,weatherlink.com 1.10,2013-07-22 20:05:00,
2013-07-22 16:20:00,85.4,73.0,29.73,East,91,0.0,2.0,67,0.00,,,0.01,weatherlink.com 1.10,2013-07-22 20:20:00,
2013-07-22 16:35:00,84.8,73.0,29.73,ENE,75,0.0,3.0,67,0.00,,,0.01,weatherlink.com 1.10,2013-07-22 20:35:00,
2013-07-22 16:50:00,84.2,73.0,29.73,East,89,0.0,2.0,69,0.00,,,0.01,weatherlink.com 1.10,2013-07-22 20:50:00,
2013-07-22 17:05:00,83.6,74.0,29.71,East,94,0.0,2.0,72,0.00,,,0.01,weatherlink.com 1.10,2013-07-22 21:05:00,
2013-07-22 17:20:00,83.6,74.0,29.71,East,96,0.0,1.0,72,0.00,,,0.01,weatherlink.com 1.10,2013-07-22 21:20:00,
2013-07-22 17:35:00,83.4,74.0,29.70,East,98,1.0,3.0,73,0.00,,,0.01,weatherlink.com 1.10,2013-07-22 21:35:00,
2013-07-22 17:50:00,83.1,74.0,29.70,East,98,0.0,3.0,74,0.00,,,0.01,weatherlink.com 1.10,2013-07-22 21:50:00,
2013-07-22 18:05:00,83.6,74.0,29.70,East,88,0.0,1.0,73,0.00,,,0.01,weatherlink.com 1.10,2013-07-22 22:05:00,
2013-07-22 18:20:00,82.9,76.0,29.70,East,88,0.0,0.0,80,0.01,,,0.02,weatherlink.com 1.10,2013-07-22 22:20:00,
2013-07-22 18:35:00,81.4,76.0,29.69,East,88,0.0,0.0,83,0.03,,,0.04,weatherlink.com 1.10,2013-07-22 22:35:00,
2013-07-22 18:50:00,80.4,76.0,29.69,East,88,0.0,0.0,87,0.03,,,0.04,weatherlink.com 1.10,2013-07-22 22:50:00,
2013-07-22 19:05:00,79.7,76.0,29.69,East,88,0.0,1.0,89,0.03,,,0.04,weatherlink.com 1.10,2013-07-22 23:05:00,
2013-07-22 19:20:00,78.8,76.0,29.70,WNW,303,2.0,2.0,90,0.02,,,0.04,weatherlink.com 1.10,2013-07-22 23:20:00,
2013-07-22 19:35:00,78.1,75.0,29.70,West,281,1.0,3.0,90,0.00,,,0.04,weatherlink.com 1.10,2013-07-22 23:35:00,
2013-07-22 19:50:00,77.4,75.0,29.70,WNW,286,4.0,5.0,91,0.00,,,0.04,weatherlink.com 1.10,2013-07-22 23:50:00,
2013-07-22 20:05:00,76.7,74.0,29.70,West,276,1.0,4.0,91,0.00,,,0.04,weatherlink.com 1.10,2013-07-23 00:05:00,
2013-07-22 20:20:00,76.1,74.0,29.70,WNW,284,1.0,5.0,92,0.00,,,0.04,weatherlink.com 1.10,2013-07-23 00:20:00,
2013-07-22 20:35:00,75.7,74.0,29.70,West,265,1.0,4.0,93,0.01,,,0.05,weatherlink.com 1.10,2013-07-23 00:35:00,
2013-07-22 20:50:00,75.4,74.0,29.70,NNW,327,2.0,5.0,94,0.02,,,0.06,weatherlink.com 1.10,2013-07-23 00:50:00,
2013-07-22 21:05:00,73.6,71.0,29.71,West,280,0.0,9.0,92,0.37,,,0.41,weatherlink.com 1.10,2013-07-23 01:05:00,
2013-07-22 21:20:00,72.0,70.0,29.71,SE,134,1.0,4.0,94,0.57,,,0.61,weatherlink.com 1.10,2013-07-23 01:20:00,
2013-07-22 21:35:00,71.5,70.0,29.71,WSW,252,0.0,3.0,95,0.58,,,0.63,weatherlink.com 1.10,2013-07-23 01:35:00,
2013-07-22 21:50:00,71.3,70.0,29.71,NNW,333,0.0,3.0,95,0.58,,,0.64,weatherlink.com 1.10,2013-07-23 01:50:00,
2013-07-22 22:05:00,71.2,70.0,29.71,NNW,333,0.0,0.0,96,0.24,,,0.65,weatherlink.com 1.10,2013-07-23 02:05:00,
2013-07-22 22:20:00,71.1,70.0,29.71,NNW,333,0.0,0.0,96,0.04,,,0.65,weatherlink.com 1.10,2013-07-23 02:20:00,
2013-07-22 22:35:00,71.0,70.0,29.70,NNW,331,0.0,1.0,96,0.02,,,0.65,weatherlink.com 1.10,2013-07-23 02:35:00,
2013-07-22 22:50:00,71.0,70.0,29.70,West,270,1.0,3.0,97,0.00,,,0.65,weatherlink.com 1.10,2013-07-23 02:50:00,
2013-07-22 23:05:00,71.0,70.0,29.70,NW,306,2.0,3.0,97,0.00,,,0.65,weatherlink.com 1.10,2013-07-23 03:05:00,
2013-07-22 23:20:00,71.0,70.0,29.69,WNW,300,0.0,3.0,97,0.00,,,0.65,weatherlink.com 1.10,2013-07-23 03:20:00,
2013-07-22 23:35:00,71.0,70.0,29.70,WNW,286,3.0,3.0,97,0.00,,,0.65,weatherlink.com 1.10,2013-07-23 03:35:00,
2013-07-22 23:50:00,71.0,70.0,29.70,WSW,248,0.0,2.0,97,0.00,,,0.65,weatherlink.com 1.10,2013-07-23 03:50:00,